Time;durP1;ratioP1;P1;durP2;ratioP2;P2;SDS_P1;SDS_P2;PMS_P1;PMS_P2;Temp;Humidity;BMP_temperature;BMP_pressure;BME280_temperature;BME280_humidity;BME280_pressure;Samples;Min_cycle;Max_cycle;Signal;HPM_P1;HPM_P2
2023/04/25 00:00:48;;;;;;;1.87;1.67;;;9.40;99.90;;;;;;5129027;27;20345;-69
2023/04/25 00:03:15;;;;;;;3.13;1.90;;;9.40;99.90;;;;;;5128474;27;20197;-69
2023/04/25 00:05:42;;;;;;;2.10;1.90;;;9.50;99.90;;;;;;5128595;27;20202;-69
2023/04/25 00:08:11;;;;;;;1.73;1.50;;;9.50;99.90;;;;;;5128500;27;20553;-69
2023/04/25 00:10:37;;;;;;;2.13;1.90;;;9.40;99.90;;;;;;5128700;27;20239;-69
2023/04/25 00:13:04;;;;;;;1.73;1.63;;;9.40;99.90;;;;;;5128535;27;20237;-69
2023/04/25 00:15:31;;;;;;;1.97;1.80;;;9.40;99.90;;;;;;5128776;27;20236;-69
2023/04/25 00:17:58;;;;;;;2.90;1.73;;;9.30;99.90;;;;;;5128551;27;20244;-69
2023/04/25 00:20:25;;;;;;;3.47;1.80;;;9.30;99.90;;;;;;5128277;27;20319;-69
2023/04/25 00:22:53;;;;;;;1.97;1.77;;;9.30;99.90;;;;;;5128316;27;20202;-69
2023/04/25 00:25:21;;;;;;;4.00;1.70;;;9.40;99.90;;;;;;5128633;27;20228;-70
2023/04/25 00:27:48;;;;;;;2.00;1.70;;;9.40;99.90;;;;;;5128439;27;20244;-69
2023/04/25 00:30:16;;;;;;;2.07;1.93;;;9.30;99.90;;;;;;5144382;27;20308;-70
2023/04/25 00:32:42;;;;;;;2.43;2.00;;;9.40;99.90;;;;;;5149192;27;20887;-70
2023/04/25 00:35:10;;;;;;;6.93;2.10;;;9.40;99.90;;;;;;5142670;27;20229;-70
2023/04/25 00:37:37;;;;;;;2.30;2.00;;;9.40;99.90;;;;;;5128277;27;20312;-73
2023/04/25 00:40:07;;;;;;;2.40;2.07;;;9.50;99.90;;;;;;5127362;27;20267;-70
2023/04/25 00:42:36;;;;;;;2.47;2.07;;;9.50;99.90;;;;;;5127875;27;20653;-70
2023/04/25 00:45:07;;;;;;;2.17;1.97;;;9.40;99.90;;;;;;5125943;27;20208;-69
2023/04/25 00:47:34;;;;;;;2.30;2.10;;;9.40;99.90;;;;;;5123226;27;20194;-69
2023/04/25 00:50:01;;;;;;;4.03;2.43;;;9.50;99.90;;;;;;5127197;27;20209;-69
2023/04/25 00:52:28;;;;;;;3.23;1.90;;;9.40;99.90;;;;;;5126914;27;20296;-69
2023/04/25 00:54:55;;;;;;;3.20;2.40;;;9.40;99.90;;;;;;5106845;28;20293;-69
2023/04/25 00:57:22;;;;;;;3.63;2.20;;;9.30;99.90;;;;;;5106761;27;20411;-69
2023/04/25 00:59:52;;;;;;;2.63;2.40;;;9.30;99.90;;;;;;5118776;27;20320;-69
2023/04/25 01:02:20;;;;;;;3.57;2.23;;;9.30;99.90;;;;;;5127289;27;21031;-69
2023/04/25 01:04:48;;;;;;;4.53;2.30;;;9.30;99.90;;;;;;5126685;27;20287;-69
2023/04/25 01:07:15;;;;;;;4.70;2.50;;;9.20;99.90;;;;;;5127095;27;20205;-69
2023/04/25 01:09:42;;;;;;;4.77;2.20;;;9.30;99.90;;;;;;5127841;27;20209;-69
2023/04/25 01:12:09;;;;;;;2.47;2.23;;;9.20;99.90;;;;;;5127066;27;20265;-70
2023/04/25 01:14:36;;;;;;;2.57;2.27;;;9.20;99.90;;;;;;5127355;27;20296;-69
2023/04/25 01:17:07;;;;;;;2.83;2.30;;;9.20;99.90;;;;;;5127197;27;20301;-69
2023/04/25 01:19:34;;;;;;;3.70;2.37;;;9.20;99.90;;;;;;5127313;27;20225;-69
2023/04/25 01:22:03;;;;;;;5.90;2.53;;;9.20;99.90;;;;;;5126927;27;20300;-70
2023/04/25 01:24:30;;;;;;;2.83;2.43;;;9.20;99.90;;;;;;5127360;27;20650;-70
2023/04/25 01:26:57;;;;;;;5.97;2.77;;;9.10;99.90;;;;;;5126874;27;20213;-70
2023/04/25 01:29:25;;;;;;;3.00;1.87;;;9.20;99.90;;;;;;5118635;27;20241;-70
2023/04/25 01:31:53;;;;;;;4.43;2.50;;;9.20;99.90;;;;;;5106370;28;20280;-69
2023/04/25 01:34:20;;;;;;;3.70;2.40;;;9.10;99.90;;;;;;5110402;27;20220;-69
2023/04/25 01:36:49;;;;;;;4.00;2.30;;;9.20;99.90;;;;;;5126397;27;20296;-70
2023/04/25 01:39:18;;;;;;;3.17;2.50;;;9.30;99.90;;;;;;5126561;27;20264;-70
2023/04/25 01:41:46;;;;;;;3.07;2.20;;;9.20;99.90;;;;;;5128801;27;20300;-69
2023/04/25 01:44:13;;;;;;;3.27;2.20;;;9.20;99.90;;;;;;5147872;27;20231;-69
2023/04/25 01:46:40;;;;;;;4.97;2.87;;;9.30;99.90;;;;;;5147351;27;20236;-70
2023/04/25 01:49:07;;;;;;;2.97;2.47;;;9.20;99.90;;;;;;5146362;27;20292;-69
2023/04/25 01:51:34;;;;;;;3.87;2.50;;;9.20;99.90;;;;;;5126649;27;20683;-69
2023/04/25 01:54:01;;;;;;;5.30;2.70;;;9.20;99.90;;;;;;5126312;27;20208;-70
2023/04/25 01:56:32;;;;;;;4.93;2.60;;;9.10;99.90;;;;;;5125077;27;20637;-70
2023/04/25 01:58:59;;;;;;;5.30;2.70;;;9.10;99.90;;;;;;5106102;28;20250;-69
2023/04/25 02:01:26;;;;;;;3.90;2.73;;;9.00;99.90;;;;;;5105970;27;20216;-70
2023/04/25 02:03:53;;;;;;;4.63;2.47;;;9.00;99.90;;;;;;5105926;28;20283;-70
2023/04/25 02:06:20;;;;;;;3.20;2.23;;;9.00;99.90;;;;;;5106442;28;20206;-70
2023/04/25 02:08:47;;;;;;;3.07;2.87;;;9.00;99.90;;;;;;5106197;28;20296;-70
2023/04/25 02:11:14;;;;;;;3.60;2.60;;;9.10;99.90;;;;;;5105821;28;20325;-70
2023/04/25 02:13:42;;;;;;;3.33;2.30;;;9.00;99.90;;;;;;5105902;28;20289;-70
2023/04/25 02:16:09;;;;;;;3.03;2.60;;;9.00;99.90;;;;;;5107117;27;20213;-68
2023/04/25 02:18:37;;;;;;;3.97;2.87;;;9.10;99.90;;;;;;5116378;27;20226;-68
2023/04/25 02:21:04;;;;;;;5.50;2.83;;;9.00;99.90;;;;;;5115060;27;20198;-68
2023/04/25 02:23:31;;;;;;;5.20;2.90;;;9.00;99.90;;;;;;5114436;27;20228;-71
2023/04/25 02:25:58;;;;;;;3.30;2.60;;;8.90;99.90;;;;;;5117028;27;20229;-70
2023/04/25 02:28:26;;;;;;;3.20;2.37;;;8.90;99.90;;;;;;5107903;27;20297;-70
2023/04/25 02:30:54;;;;;;;5.57;2.83;;;8.80;99.90;;;;;;5103807;28;20867;-70
2023/04/25 02:33:21;;;;;;;4.63;3.13;;;8.90;99.90;;;;;;5104325;28;20555;-70
2023/04/25 02:35:48;;;;;;;4.03;3.10;;;8.80;99.90;;;;;;5103873;28;20206;-69
2023/04/25 02:38:15;;;;;;;3.97;3.10;;;8.90;99.90;;;;;;5109397;28;20225;-69
2023/04/25 02:40:42;;;;;;;3.97;3.07;;;8.90;99.90;;;;;;5103743;28;20908;-69
2023/04/25 02:43:09;;;;;;;3.97;3.07;;;8.90;99.90;;;;;;5105187;28;20285;-70
2023/04/25 02:45:37;;;;;;;5.10;3.03;;;8.90;99.90;;;;;;5107252;27;20292;-69
2023/04/25 02:48:06;;;;;;;7.27;3.20;;;8.90;99.90;;;;;;5125024;27;20211;-70
2023/04/25 02:50:33;;;;;;;6.07;3.13;;;8.90;99.90;;;;;;5124837;27;20213;-70
2023/04/25 02:53:00;;;;;;;5.70;3.00;;;8.90;99.90;;;;;;5124111;27;20288;-69
2023/04/25 02:55:27;;;;;;;4.57;3.17;;;8.80;99.90;;;;;;5124349;27;20694;-69
2023/04/25 02:57:55;;;;;;;6.73;3.00;;;8.90;99.90;;;;;;5112931;27;20304;-70
2023/04/25 03:00:22;;;;;;;7.63;3.33;;;8.80;99.90;;;;;;5102736;28;20294;-70
2023/04/25 03:02:49;;;;;;;4.73;2.97;;;8.80;99.90;;;;;;5123360;28;20619;-69
2023/04/25 03:05:17;;;;;;;3.60;3.00;;;8.80;99.90;;;;;;5124094;27;20240;-71
2023/04/25 03:07:45;;;;;;;3.83;3.00;;;8.70;99.90;;;;;;5124278;27;20209;-71
2023/04/25 03:10:13;;;;;;;5.40;3.10;;;8.80;99.90;;;;;;5114786;27;20291;-71
2023/04/25 03:12:40;;;;;;;5.00;3.47;;;8.90;99.90;;;;;;5118111;27;20234;-71
2023/04/25 03:15:08;;;;;;;6.20;3.03;;;8.90;99.90;;;;;;5106199;28;20289;-70
2023/04/25 03:17:35;;;;;;;4.23;3.37;;;8.90;99.90;;;;;;5110826;27;20206;-70
2023/04/25 03:20:03;;;;;;;4.77;3.30;;;8.90;99.90;;;;;;5122119;28;20244;-70
2023/04/25 03:22:32;;;;;;;4.03;3.43;;;8.80;99.90;;;;;;5124259;27;20202;-70
2023/04/25 03:24:59;;;;;;;4.80;3.57;;;8.70;99.90;;;;;;5124599;27;20233;-70
2023/04/25 03:27:26;;;;;;;5.63;3.17;;;8.70;99.90;;;;;;5133861;27;20253;-70
2023/04/25 03:29:52;;;;;;;3.50;3.17;;;8.70;99.90;;;;;;5136278;27;20664;-70
2023/04/25 03:32:19;;;;;;;5.60;3.33;;;8.70;99.90;;;;;;5128933;27;20237;-70
2023/04/25 03:34:46;;;;;;;4.13;2.83;;;8.70;99.90;;;;;;5129031;27;20244;-70
2023/04/25 03:37:13;;;;;;;6.00;3.30;;;8.70;99.90;;;;;;5128695;27;20656;-70
2023/04/25 03:39:41;;;;;;;7.00;3.77;;;8.70;99.90;;;;;;5129354;27;20225;-71
2023/04/25 03:42:08;;;;;;;3.13;2.77;;;8.70;99.90;;;;;;5123547;27;20645;-71
2023/04/25 03:44:35;;;;;;;6.00;3.60;;;8.70;99.90;;;;;;5108530;28;20626;-71
2023/04/25 03:47:02;;;;;;;6.30;3.90;;;8.70;99.90;;;;;;5108594;28;20249;-71
2023/04/25 03:49:29;;;;;;;5.83;3.60;;;8.70;99.90;;;;;;5107973;27;20209;-68
2023/04/25 03:51:56;;;;;;;4.47;3.33;;;8.70;99.90;;;;;;5108298;28;20675;-69
2023/04/25 03:54:23;;;;;;;3.97;3.57;;;8.80;99.90;;;;;;5108795;28;20372;-69
2023/04/25 03:56:51;;;;;;;5.40;3.37;;;8.60;99.90;;;;;;5113007;27;20281;-69
2023/04/25 03:59:18;;;;;;;3.87;3.20;;;8.60;99.90;;;;;;5121715;27;20325;-69
2023/04/25 04:01:45;;;;;;;4.43;3.13;;;8.70;99.90;;;;;;5109028;28;20313;-69
2023/04/25 04:04:12;;;;;;;5.80;3.40;;;8.60;99.90;;;;;;5108490;27;20246;-69
2023/04/25 04:06:38;;;;;;;5.97;3.23;;;8.60;99.90;;;;;;5108712;28;20237;-69
2023/04/25 04:09:09;;;;;;;5.03;3.30;;;8.60;99.90;;;;;;5108547;28;20212;-69
2023/04/25 04:11:38;;;;;;;11.40;4.00;;;8.60;99.90;;;;;;5108383;28;20739;-69
2023/04/25 04:14:06;;;;;;;5.67;3.13;;;8.60;99.90;;;;;;5108228;28;20210;-69
2023/04/25 04:16:33;;;;;;;6.03;3.00;;;8.70;99.90;;;;;;5107968;28;20210;-70
2023/04/25 04:19:00;;;;;;;5.50;3.20;;;8.70;99.90;;;;;;5107878;28;20230;-69
2023/04/25 04:21:27;;;;;;;5.27;3.13;;;8.70;99.90;;;;;;5108045;28;20292;-69
2023/04/25 04:23:55;;;;;;;4.23;3.37;;;8.70;99.90;;;;;;5132140;27;20208;-69
2023/04/25 04:26:23;;;;;;;8.03;3.43;;;8.80;99.90;;;;;;5148810;27;20208;-69
2023/04/25 04:28:50;;;;;;;3.57;2.97;;;8.80;99.90;;;;;;5145642;27;20213;-70
2023/04/25 04:31:19;;;;;;;4.27;3.00;;;8.80;99.90;;;;;;5128568;27;20214;-69
2023/04/25 04:33:46;;;;;;;4.47;2.93;;;8.80;99.90;;;;;;5128217;27;20233;-69
2023/04/25 04:36:13;;;;;;;3.33;3.03;;;8.80;99.90;;;;;;5128141;27;20707;-69
2023/04/25 04:38:42;;;;;;;5.77;3.00;;;8.80;99.90;;;;;;5127777;27;20216;-70
2023/04/25 04:41:09;;;;;;;4.10;2.90;;;8.80;99.90;;;;;;5128329;27;20209;-69
2023/04/25 04:43:36;;;;;;;4.80;3.37;;;8.80;99.90;;;;;;5128187;27;20970;-69
2023/04/25 04:46:04;;;;;;;5.20;3.43;;;8.80;99.90;;;;;;5127995;27;20205;-69
2023/04/25 04:48:34;;;;;;;6.27;3.10;;;8.70;99.90;;;;;;5128342;27;20213;-69
2023/04/25 04:51:01;;;;;;;5.63;3.53;;;8.70;99.90;;;;;;5128017;27;20209;-69
2023/04/25 04:53:28;;;;;;;3.50;3.00;;;8.80;99.90;;;;;;5127831;27;20296;-69
2023/04/25 04:55:55;;;;;;;4.87;3.00;;;8.90;99.90;;;;;;5127781;27;20205;-69
2023/04/25 04:58:22;;;;;;;3.47;3.03;;;8.90;99.90;;;;;;5110329;27;20321;-70
2023/04/25 05:00:49;;;;;;;4.37;3.17;;;8.80;99.90;;;;;;5127500;27;20331;-69
2023/04/25 05:03:16;;;;;;;6.77;3.70;;;8.80;99.90;;;;;;5127600;27;20316;-69
2023/04/25 05:05:45;;;;;;;4.73;3.43;;;8.80;99.90;;;;;;5127758;27;20289;-69
2023/04/25 05:08:12;;;;;;;7.23;4.00;;;8.80;99.90;;;;;;5127500;27;20675;-69
2023/04/25 05:10:39;;;;;;;5.33;3.70;;;8.80;99.90;;;;;;5127555;27;20281;-69
2023/04/25 05:13:06;;;;;;;6.43;3.40;;;8.90;99.90;;;;;;5127545;27;20678;-69
2023/04/25 05:15:33;;;;;;;3.83;3.20;;;8.90;99.90;;;;;;5127740;27;20324;-69
2023/04/25 05:18:00;;;;;;;3.47;3.17;;;8.90;99.90;;;;;;5120829;27;20318;-69
2023/04/25 05:20:27;;;;;;;5.50;3.27;;;8.90;99.90;;;;;;5119850;27;20320;-70
2023/04/25 05:22:55;;;;;;;5.67;3.30;;;8.80;99.90;;;;;;5127565;27;20301;-69
2023/04/25 05:25:22;;;;;;;5.93;2.77;;;8.90;99.90;;;;;;5127403;27;20205;-69
2023/04/25 05:27:49;;;;;;;6.97;3.80;;;8.90;99.90;;;;;;5137891;27;20292;-70
2023/04/25 05:30:15;;;;;;;5.93;3.50;;;8.80;99.90;;;;;;5132220;27;20245;-69
2023/04/25 05:32:42;;;;;;;3.77;3.40;;;8.80;99.90;;;;;;5127261;27;20728;-69
2023/04/25 05:35:09;;;;;;;3.70;3.40;;;8.90;99.90;;;;;;5127261;27;20522;-69
2023/04/25 05:37:36;;;;;;;4.87;3.27;;;8.90;99.90;;;;;;5126854;27;20296;-69
2023/04/25 05:40:06;;;;;;;6.00;3.43;;;8.80;99.90;;;;;;5126799;27;20231;-69
2023/04/25 05:42:33;;;;;;;6.53;3.60;;;8.90;99.90;;;;;;5127712;27;20198;-69
2023/04/25 05:45:00;;;;;;;8.30;3.73;;;8.90;99.90;;;;;;5126585;27;20300;-69
2023/04/25 05:47:27;;;;;;;9.47;4.03;;;8.90;99.90;;;;;;5127209;27;20237;-70
2023/04/25 05:49:54;;;;;;;5.37;3.93;;;8.90;99.90;;;;;;5125590;27;20245;-69
2023/04/25 05:52:22;;;;;;;4.60;3.50;;;8.90;99.90;;;;;;5126608;27;20560;-69
2023/04/25 05:54:49;;;;;;;8.63;4.20;;;8.80;99.90;;;;;;5126825;27;20205;-70
2023/04/25 05:57:25;;;;;;;7.07;4.00;;;8.80;99.90;;;;;;5126624;27;20300;-69
2023/04/25 05:59:52;;;;;;;10.23;4.13;;;8.90;99.90;;;;;;5126941;27;20316;-70
2023/04/25 06:02:21;;;;;;;6.20;4.23;;;8.90;99.90;;;;;;5126546;27;20233;-69
2023/04/25 06:04:48;;;;;;;6.80;4.10;;;8.80;99.90;;;;;;5126597;27;20296;-69
2023/04/25 06:07:15;;;;;;;6.80;4.07;;;8.90;99.90;;;;;;5127000;27;20262;-69
2023/04/25 06:09:41;;;;;;;7.00;3.90;;;8.90;99.90;;;;;;5126770;27;20300;-69
2023/04/25 06:12:08;;;;;;;7.73;4.33;;;8.90;99.90;;;;;;5126534;27;20794;-69
2023/04/25 06:14:37;;;;;;;4.63;3.97;;;8.90;99.90;;;;;;5126591;27;20719;-69
2023/04/25 06:17:06;;;;;;;6.63;4.30;;;8.80;99.90;;;;;;5110862;27;20737;-69
2023/04/25 06:19:33;;;;;;;7.10;4.50;;;8.90;99.90;;;;;;5105607;28;20791;-69
2023/04/25 06:22:00;;;;;;;7.83;4.40;;;8.80;99.90;;;;;;5105926;28;20210;-69
2023/04/25 06:24:27;;;;;;;5.33;4.70;;;8.80;99.90;;;;;;5105514;28;20289;-69
2023/04/25 06:26:54;;;;;;;7.53;4.40;;;8.80;99.90;;;;;;5105511;28;20301;-69
2023/04/25 06:29:21;;;;;;;4.47;4.00;;;8.90;99.90;;;;;;5113248;27;20327;-70
2023/04/25 06:31:49;;;;;;;6.87;4.00;;;8.90;99.90;;;;;;5125815;27;20702;-69
2023/04/25 06:34:17;;;;;;;7.23;4.10;;;9.00;99.90;;;;;;5126110;27;20208;-69
2023/04/25 06:36:47;;;;;;;6.50;4.37;;;9.00;99.90;;;;;;5126219;27;20212;-69
2023/04/25 06:39:14;;;;;;;6.50;4.10;;;9.00;99.90;;;;;;5126256;27;20209;-70
2023/04/25 06:41:41;;;;;;;4.47;4.07;;;9.00;99.90;;;;;;5126603;27;20299;-69
2023/04/25 06:44:08;;;;;;;4.83;3.80;;;8.90;99.90;;;;;;5126198;27;20282;-69
2023/04/25 06:46:36;;;;;;;7.50;3.90;;;8.80;99.90;;;;;;5126631;27;20202;-69
2023/04/25 06:49:04;;;;;;;3.97;3.57;;;8.80;99.90;;;;;;5126167;27;20212;-69
2023/04/25 06:51:31;;;;;;;4.43;3.67;;;8.80;99.90;;;;;;5125755;27;20715;-69
2023/04/25 06:54:00;;;;;;;4.43;3.43;;;8.90;99.90;;;;;;5126230;27;20315;-69
2023/04/25 06:56:29;;;;;;;3.73;3.10;;;8.80;99.90;;;;;;5124768;27;20729;-69
2023/04/25 06:58:56;;;;;;;4.70;3.50;;;8.80;99.90;;;;;;5113783;27;20704;-69
2023/04/25 07:01:23;;;;;;;7.23;3.50;;;8.70;99.90;;;;;;5148314;27;20382;-70
2023/04/25 07:03:50;;;;;;;3.77;3.33;;;8.60;99.90;;;;;;5150632;27;20754;-69
2023/04/25 07:06:18;;;;;;;4.23;3.73;;;8.60;99.90;;;;;;5150774;27;20819;-69
2023/04/25 07:08:45;;;;;;;5.33;3.50;;;8.60;99.90;;;;;;5150818;27;20219;-69
2023/04/25 07:11:12;;;;;;;8.57;4.17;;;8.50;99.90;;;;;;5150372;27;20240;-69
2023/04/25 07:13:39;;;;;;;7.37;4.03;;;8.50;99.90;;;;;;5130569;27;20216;-69
2023/04/25 07:16:06;;;;;;;4.53;3.70;;;8.40;99.90;;;;;;5129730;27;20304;-69
2023/04/25 07:18:33;;;;;;;7.93;3.97;;;8.40;99.90;;;;;;5129904;27;20466;-70
2023/04/25 07:21:00;;;;;;;6.10;3.83;;;8.50;99.90;;;;;;5129527;27;20229;-70
2023/04/25 07:23:28;;;;;;;7.80;3.37;;;8.60;99.90;;;;;;5129904;27;20205;-69
2023/04/25 07:25:55;;;;;;;5.10;3.53;;;8.70;99.90;;;;;;5129747;27;20279;-69
2023/04/25 07:28:22;;;;;;;8.00;3.60;;;8.80;99.90;;;;;;5129581;27;20215;-69
2023/04/25 07:30:49;;;;;;;6.73;4.00;;;8.80;99.90;;;;;;5130022;27;20220;-69
2023/04/25 07:33:16;;;;;;;8.40;3.70;;;8.80;99.90;;;;;;5129737;27;20304;-69
2023/04/25 07:35:43;;;;;;;6.30;3.30;;;8.80;99.90;;;;;;5129418;27;20214;-70
2023/04/25 07:38:10;;;;;;;10.97;3.87;;;8.80;99.90;;;;;;5129574;27;20240;-69
2023/04/25 07:40:38;;;;;;;6.90;3.30;;;8.90;99.90;;;;;;5129215;27;20316;-69
2023/04/25 07:43:05;;;;;;;7.90;3.47;;;8.90;99.90;;;;;;5129399;27;20308;-70
2023/04/25 07:45:32;;;;;;;9.93;3.50;;;8.90;99.90;;;;;;5129667;27;20285;-69
2023/04/25 07:47:59;;;;;;;8.60;3.67;;;8.90;99.90;;;;;;5129021;27;20288;-69
2023/04/25 07:50:26;;;;;;;10.27;3.73;;;8.90;99.90;;;;;;5128981;27;20300;-69
2023/04/25 07:52:52;;;;;;;9.83;3.43;;;9.00;99.90;;;;;;5128645;27;20282;-69
2023/04/25 07:55:19;;;;;;;13.77;4.10;;;9.00;99.90;;;;;;5129196;27;20289;-69
2023/04/25 07:57:48;;;;;;;9.17;3.13;;;9.10;99.90;;;;;;5116174;27;20222;-69
2023/04/25 08:00:15;;;;;;;7.87;3.30;;;9.10;99.90;;;;;;5108248;28;20815;-69
2023/04/25 08:02:42;;;;;;;9.73;3.43;;;9.10;99.90;;;;;;5108463;28;20238;-69
2023/04/25 08:05:11;;;;;;;11.03;3.90;;;9.20;99.90;;;;;;5107969;27;20216;-70
2023/04/25 08:07:41;;;;;;;9.00;3.80;;;9.20;99.90;;;;;;5108359;27;20206;-70
2023/04/25 08:10:09;;;;;;;12.17;3.50;;;9.20;99.90;;;;;;5128795;27;20268;-69
2023/04/25 08:12:35;;;;;;;11.83;3.37;;;9.30;99.90;;;;;;5127863;27;20455;-69
2023/04/25 08:15:06;;;;;;;9.23;3.20;;;9.30;99.90;;;;;;5128642;27;20285;-69
2023/04/25 08:17:33;;;;;;;11.27;3.63;;;9.30;99.90;;;;;;5128559;27;20232;-69
2023/04/25 08:20:00;;;;;;;12.97;3.60;;;9.40;99.90;;;;;;5128747;27;20285;-69
2023/04/25 08:22:26;;;;;;;8.90;3.40;;;9.50;99.90;;;;;;5124914;27;20267;-69
2023/04/25 08:24:53;;;;;;;9.40;3.10;;;9.50;99.90;;;;;;5107908;28;20289;-70
2023/04/25 08:27:21;;;;;;;14.63;3.33;;;9.50;99.90;;;;;;5107797;28;20321;-69
2023/04/25 08:29:48;;;;;;;8.67;2.97;;;9.50;99.90;;;;;;5119276;27;20308;-69
2023/04/25 08:32:16;;;;;;;9.90;2.90;;;9.40;99.90;;;;;;5128600;27;20368;-69
2023/04/25 08:34:43;;;;;;;6.83;2.90;;;9.50;99.90;;;;;;5128478;27;20299;-69
2023/04/25 08:37:11;;;;;;;8.77;3.10;;;9.50;99.90;;;;;;5128178;27;20262;-72
2023/04/25 08:39:38;;;;;;;12.97;3.10;;;9.50;99.90;;;;;;5128149;27;20297;-69
2023/04/25 08:42:08;;;;;;;9.97;2.80;;;9.40;99.90;;;;;;5128508;27;20233;-70
2023/04/25 08:44:35;;;;;;;11.10;3.00;;;9.40;99.90;;;;;;5128361;27;20208;-69
2023/04/25 08:47:04;;;;;;;9.93;2.63;;;9.50;99.90;;;;;;5128081;27;20216;-69
2023/04/25 08:49:34;;;;;;;9.33;2.50;;;9.60;99.90;;;;;;5127997;27;20289;-69
2023/04/25 08:52:02;;;;;;;10.27;3.20;;;9.80;99.90;;;;;;5128123;27;20212;-70
2023/04/25 08:54:30;;;;;;;6.30;2.70;;;10.00;99.90;;;;;;5127969;27;20209;-70
2023/04/25 08:56:58;;;;;;;8.23;3.37;;;10.10;99.90;;;;;;5122123;27;20289;-69
2023/04/25 08:59:25;;;;;;;7.17;2.43;;;9.90;99.90;;;;;;5115991;27;20732;-69
2023/04/25 09:01:52;;;;;;;7.67;3.00;;;10.00;99.90;;;;;;5127700;27;20320;-69
2023/04/25 09:04:20;;;;;;;9.63;3.13;;;10.10;99.90;;;;;;5127127;27;20212;-69
2023/04/25 09:06:48;;;;;;;10.70;2.63;;;10.20;99.90;;;;;;5128117;27;20285;-69
2023/04/25 09:09:15;;;;;;;16.80;3.10;;;10.20;99.90;;;;;;5127550;27;20265;-69
2023/04/25 09:11:42;;;;;;;10.50;3.10;;;10.40;99.90;;;;;;5127684;27;20975;-69
2023/04/25 09:14:16;;;;;;;13.17;3.33;;;10.30;99.90;;;;;;5127184;27;20719;-70
2023/04/25 09:17:00;;;;;;;7.43;2.67;;;10.50;99.90;;;;;;5127776;27;20283;-69
2023/04/25 09:19:29;;;;;;;12.03;3.20;;;10.40;99.90;;;;;;5126831;27;20296;-69
2023/04/25 09:21:58;;;;;;;10.97;3.07;;;10.40;99.90;;;;;;5127127;27;20239;-69
2023/04/25 09:24:36;;;;;;;10.37;2.63;;;10.40;99.90;;;;;;5126833;27;20721;-69
2023/04/25 09:27:07;;;;;;;7.93;2.37;;;10.40;99.90;;;;;;5126797;27;20741;-69
2023/04/25 09:29:36;;;;;;;9.60;2.90;;;10.40;99.90;;;;;;5136760;27;20208;-69
2023/04/25 09:32:17;;;;;;;8.10;2.67;;;10.30;99.90;;;;;;5148026;27;20235;-70
2023/04/25 09:34:49;;;;;;;8.93;2.57;;;10.40;99.90;;;;;;5148000;27;20243;-69
2023/04/25 09:37:21;;;;;;;28.37;4.07;;;10.40;99.90;;;;;;5147669;27;20701;-69
2023/04/25 09:39:48;;;;;;;9.90;2.47;;;10.50;99.90;;;;;;5147350;27;20200;-69
2023/04/25 09:42:16;;;;;;;7.97;2.50;;;10.40;99.90;;;;;;5147631;27;20232;-69
2023/04/25 09:44:45;;;;;;;8.90;2.70;;;10.50;99.90;;;;;;5147672;27;20216;-70
2023/04/25 09:47:13;;;;;;;9.93;2.70;;;10.50;99.90;;;;;;5147359;27;20200;-69
2023/04/25 09:49:43;;;;;;;8.20;2.57;;;10.60;99.90;;;;;;5147327;27;20197;-69
2023/04/25 09:52:13;;;;;;;6.73;2.27;;;10.60;99.90;;;;;;5147007;27;20679;-69
2023/04/25 09:54:42;;;;;;;7.33;2.13;;;10.70;99.90;;;;;;5147488;27;20284;-70
2023/04/25 09:57:12;;;;;;;6.33;2.20;;;11.00;99.90;;;;;;5139674;27;20222;-70
2023/04/25 09:59:43;;;;;;;6.93;2.23;;;11.10;99.90;;;;;;5126888;27;20205;-69
2023/04/25 10:02:11;;;;;;;3.40;1.93;;;11.00;99.90;;;;;;5142257;27;20311;-69
2023/04/25 10:04:39;;;;;;;7.57;2.10;;;10.70;99.90;;;;;;5147064;27;20642;-70
2023/04/25 10:07:07;;;;;;;4.17;2.13;;;10.70;99.90;;;;;;5147554;27;20209;-69
2023/04/25 10:09:36;;;;;;;7.03;2.33;;;10.80;99.90;;;;;;5132318;27;20705;-69
2023/04/25 10:12:05;;;;;;;7.23;2.43;;;10.50;99.90;;;;;;5126317;27;20383;-69
2023/04/25 10:14:33;;;;;;;6.03;2.70;;;10.50;99.90;;;;;;5126761;27;20296;-69
2023/04/25 10:17:01;;;;;;;6.30;2.20;;;10.50;99.90;;;;;;5126719;27;20228;-69
2023/04/25 10:19:29;;;;;;;8.37;2.30;;;10.50;99.90;;;;;;5126665;27;20305;-69
2023/04/25 10:22:03;;;;;;;6.83;2.37;;;10.60;99.90;;;;;;5126275;27;20229;-69
2023/04/25 10:24:30;;;;;;;6.77;2.10;;;10.60;99.90;;;;;;5126242;27;20959;-70
2023/04/25 10:26:58;;;;;;;7.47;2.93;;;10.70;99.90;;;;;;5126565;27;20229;-70
2023/04/25 10:29:27;;;;;;;4.00;2.00;;;10.80;99.90;;;;;;5126530;27;20296;-70
2023/04/25 10:31:55;;;;;;;5.53;2.37;;;10.80;99.90;;;;;;5106078;28;20206;-69
2023/04/25 10:34:38;;;;;;;7.17;2.20;;;10.70;99.90;;;;;;5105877;28;20296;-69
2023/04/25 10:37:05;;;;;;;6.10;2.37;;;10.60;99.90;;;;;;5105089;28;20309;-69
2023/04/25 10:39:33;;;;;;;6.37;2.30;;;10.60;99.90;;;;;;5105803;28;20209;-70
2023/04/25 10:42:03;;;;;;;9.30;2.40;;;10.60;99.90;;;;;;5105383;28;20261;-69
2023/04/25 10:44:32;;;;;;;5.50;2.30;;;10.60;99.90;;;;;;5105351;28;20712;-70
2023/04/25 10:47:00;;;;;;;5.93;2.00;;;10.60;99.90;;;;;;5105638;28;20229;-70
2023/04/25 10:49:33;;;;;;;5.37;1.87;;;10.50;99.90;;;;;;5105098;28;20736;-69
2023/04/25 10:52:25;;;;;;;4.70;2.13;;;10.50;99.90;;;;;;5104948;28;20672;-69
2023/04/25 10:54:54;;;;;;;4.67;1.80;;;10.60;99.90;;;;;;5105419;28;20194;-70
2023/04/25 10:57:32;;;;;;;6.87;2.30;;;10.60;99.90;;;;;;5106513;27;20673;-69
2023/04/25 11:00:03;;;;;;;4.53;1.97;;;10.50;99.90;;;;;;5118337;27;20753;-69
2023/04/25 11:02:30;;;;;;;5.10;1.73;;;10.40;99.90;;;;;;5125725;27;20229;-69
2023/04/25 11:04:57;;;;;;;4.33;2.40;;;10.30;99.90;;;;;;5125690;27;20284;-69
2023/04/25 11:07:32;;;;;;;5.07;2.20;;;10.20;99.90;;;;;;5125866;27;20300;-69
2023/04/25 11:10:03;;;;;;;4.90;1.87;;;10.00;99.90;;;;;;5126171;27;20273;-69
2023/04/25 11:12:31;;;;;;;3.87;1.90;;;9.90;99.90;;;;;;5126035;27;20675;-69
2023/04/25 11:15:04;;;;;;;3.83;1.70;;;9.90;99.90;;;;;;5125847;27;20206;-69
2023/04/25 11:17:31;;;;;;;4.00;1.73;;;9.90;99.90;;;;;;5126826;27;20245;-69
2023/04/25 11:19:58;;;;;;;2.07;1.47;;;9.90;99.90;;;;;;5125649;27;20298;-69
2023/04/25 11:22:27;;;;;;;5.87;1.70;;;10.00;99.90;;;;;;5125573;27;20229;-69
2023/04/25 11:24:54;;;;;;;4.33;1.43;;;9.90;99.90;;;;;;5125488;27;20316;-69
2023/04/25 11:27:24;;;;;;;2.80;1.40;;;10.00;99.90;;;;;;5125755;27;20258;-69
2023/04/25 11:29:51;;;;;;;5.57;1.80;;;10.00;99.90;;;;;;5113626;27;20210;-69
2023/04/25 11:32:20;;;;;;;5.93;2.00;;;10.00;99.90;;;;;;5104860;28;20324;-69
2023/04/25 11:34:48;;;;;;;5.20;1.80;;;10.10;99.90;;;;;;5104888;28;20198;-69
2023/04/25 11:37:15;;;;;;;4.60;2.00;;;10.30;99.90;;;;;;5105222;28;20293;-69
2023/04/25 11:39:46;;;;;;;3.63;1.70;;;10.30;99.40;;;;;;5105004;28;20202;-69
2023/04/25 11:42:13;;;;;;;7.70;2.00;;;10.30;99.90;;;;;;5105140;28;20248;-70
2023/04/25 11:44:41;;;;;;;5.07;2.00;;;10.30;99.90;;;;;;5104857;28;20255;-69
2023/04/25 11:47:08;;;;;;;3.30;1.50;;;10.10;99.90;;;;;;5104974;28;20206;-69
2023/04/25 11:49:37;;;;;;;7.33;2.10;;;10.20;99.90;;;;;;5107762;28;20202;-69
2023/04/25 11:52:04;;;;;;;4.27;2.13;;;10.30;99.90;;;;;;5108700;28;20673;-69
2023/04/25 11:54:31;;;;;;;4.30;1.80;;;10.30;99.90;;;;;;5122805;27;20213;-69
2023/04/25 11:56:58;;;;;;;5.27;1.87;;;10.30;99.90;;;;;;5128865;27;20344;-69
2023/04/25 11:59:26;;;;;;;5.93;2.20;;;10.40;99.90;;;;;;5128857;27;20297;-70
2023/04/25 12:01:53;;;;;;;4.20;2.17;;;10.50;99.90;;;;;;5115731;27;20595;-69
2023/04/25 12:04:22;;;;;;;5.17;1.77;;;10.60;99.90;;;;;;5107970;28;20292;-69
2023/04/25 12:06:52;;;;;;;5.10;1.90;;;10.40;99.60;;;;;;5107480;28;20258;-69
2023/04/25 12:09:22;;;;;;;3.63;1.83;;;10.40;99.60;;;;;;5107914;28;20281;-69
2023/04/25 12:11:53;;;;;;;2.80;1.30;;;10.50;99.80;;;;;;5106900;28;20234;-69
2023/04/25 12:14:24;;;;;;;3.27;1.50;;;10.50;99.80;;;;;;5107353;28;20287;-70
2023/04/25 12:16:52;;;;;;;4.90;1.63;;;10.50;99.90;;;;;;5120922;27;20274;-70
2023/04/25 12:19:21;;;;;;;4.23;2.10;;;10.60;99.70;;;;;;5127948;27;20206;-69
2023/04/25 12:21:50;;;;;;;4.70;1.80;;;10.60;99.40;;;;;;5127691;27;20324;-69
2023/04/25 12:24:23;;;;;;;5.83;2.23;;;10.50;99.50;;;;;;5107913;28;20634;-69
2023/04/25 12:26:51;;;;;;;6.70;2.00;;;10.60;99.90;;;;;;5107831;28;20599;-69
2023/04/25 12:29:21;;;;;;;4.57;2.10;;;10.60;99.90;;;;;;5107881;27;20296;-69
2023/04/25 12:31:48;;;;;;;6.57;1.87;;;10.60;99.90;;;;;;5107272;28;20206;-69
2023/04/25 12:34:15;;;;;;;4.67;1.83;;;10.60;99.90;;;;;;5107418;28;20202;-70
2023/04/25 12:36:42;;;;;;;3.77;1.60;;;10.50;99.50;;;;;;5107120;28;20206;-70
2023/04/25 12:39:15;;;;;;;2.63;1.53;;;10.40;99.90;;;;;;5107403;28;20206;-69
2023/04/25 12:41:42;;;;;;;3.27;2.07;;;10.40;99.60;;;;;;5107184;28;20274;-70
2023/04/25 12:44:09;;;;;;;3.07;1.63;;;10.20;99.90;;;;;;5107143;28;20259;-70
2023/04/25 12:46:37;;;;;;;5.63;1.90;;;10.20;99.90;;;;;;5107050;28;20305;-69
2023/04/25 12:49:06;;;;;;;4.70;1.70;;;10.10;99.90;;;;;;5106636;28;20210;-69
2023/04/25 12:51:32;;;;;;;3.47;1.67;;;10.10;99.90;;;;;;5086812;28;20239;-69
2023/04/25 12:54:00;;;;;;;4.17;1.70;;;10.10;99.90;;;;;;5086395;28;20205;-69
2023/04/25 12:56:28;;;;;;;4.40;1.80;;;10.30;99.90;;;;;;5086014;28;20853;-69